createdAt,value
2022-10-29T00:01:40.061Z,3.40
2022-10-29T00:04:07.391Z,3.47
2022-10-29T00:06:34.650Z,3.47
2022-10-29T00:09:01.934Z,3.73
2022-10-29T00:11:29.403Z,3.40
2022-10-29T00:14:00.863Z,3.20
2022-10-29T00:16:29.598Z,3.72
2022-10-29T00:18:57.652Z,3.80
2022-10-29T00:21:26.315Z,4.03
2022-10-29T00:23:53.737Z,4.80
2022-10-29T00:26:22.216Z,4.17
2022-10-29T00:28:52.783Z,4.13
2022-10-29T00:31:20.490Z,4.20
2022-10-29T00:33:47.889Z,3.90
2022-10-29T00:36:19.555Z,4.67
2022-10-29T00:38:46.809Z,4.17
2022-10-29T00:41:15.267Z,4.53
2022-10-29T00:43:44.712Z,3.90
2022-10-29T00:46:17.781Z,4.00
2022-10-29T00:48:47.450Z,4.13
2022-10-29T00:51:16.204Z,3.77
2022-10-29T00:53:46.150Z,3.77
2022-10-29T00:56:13.905Z,4.63
2022-10-29T00:58:41.331Z,4.43
2022-10-29T01:01:08.906Z,4.43
2022-10-29T01:03:36.265Z,4.40
2022-10-29T01:06:04.098Z,4.40
2022-10-29T01:08:31.354Z,4.40
2022-10-29T01:11:17.661Z,4.27
2022-10-29T01:14:07.662Z,3.40
2022-10-29T01:16:47.309Z,4.07
2022-10-29T01:19:23.909Z,3.93
2022-10-29T01:21:53.989Z,3.40
2022-10-29T01:24:24.044Z,3.63
2022-10-29T01:26:59.488Z,3.57
2022-10-29T01:29:32.884Z,3.87
2022-10-29T01:32:03.298Z,3.53
2022-10-29T01:34:39.539Z,3.60
2022-10-29T01:37:20.896Z,4.07
2022-10-29T01:39:51.355Z,4.07
2022-10-29T01:42:33.247Z,4.23
2022-10-29T01:45:11.986Z,4.90
2022-10-29T01:47:42.644Z,5.60
2022-10-29T01:50:11.072Z,4.03
2022-10-29T01:52:39.685Z,3.70
2022-10-29T01:55:07.911Z,3.77
2022-10-29T01:57:36.373Z,3.63
2022-10-29T02:00:03.617Z,3.70
2022-10-29T02:02:48.492Z,3.17
2022-10-29T02:05:33.313Z,3.17
2022-10-29T02:08:13.505Z,3.20
2022-10-29T02:10:59.539Z,3.77
2022-10-29T02:13:31.467Z,3.40
2022-10-29T02:15:59.416Z,3.40
2022-10-29T02:18:26.683Z,3.60
2022-10-29T02:20:54.047Z,3.40
2022-10-29T02:23:21.551Z,3.37
2022-10-29T02:25:48.907Z,3.47
2022-10-29T02:28:16.355Z,3.10
2022-10-29T02:30:43.941Z,3.40
2022-10-29T02:33:11.342Z,3.37
2022-10-29T02:35:38.645Z,3.70
2022-10-29T02:38:05.884Z,3.37
2022-10-29T02:40:33.082Z,3.53
2022-10-29T02:43:01.341Z,3.00
2022-10-29T02:45:28.549Z,3.30
2022-10-29T02:47:56.225Z,3.30
2022-10-29T02:50:23.788Z,3.47
2022-10-29T02:52:51.240Z,3.20
2022-10-29T02:55:18.573Z,3.47
2022-10-29T02:57:49.223Z,3.70
2022-10-29T03:00:16.642Z,3.27
2022-10-29T03:02:44.189Z,3.40
2022-10-29T03:05:12.296Z,3.70
2022-10-29T03:07:39.566Z,3.87
2022-10-29T03:10:08.173Z,4.00
2022-10-29T03:12:35.559Z,3.57
2022-10-29T03:15:02.897Z,3.67
2022-10-29T03:17:30.151Z,3.43
2022-10-29T03:19:57.703Z,3.80
2022-10-29T03:22:24.919Z,3.37
2022-10-29T03:24:52.174Z,2.97
2022-10-29T03:27:19.427Z,3.80
2022-10-29T03:29:46.920Z,2.80
2022-10-29T03:32:14.299Z,3.50
2022-10-29T03:34:41.595Z,3.60
2022-10-29T03:37:08.915Z,3.33
2022-10-29T03:39:36.158Z,3.90
2022-10-29T03:42:04.065Z,3.40
2022-10-29T03:44:32.073Z,3.80
2022-10-29T03:46:59.306Z,2.90
2022-10-29T03:49:26.723Z,3.00
2022-10-29T03:51:53.966Z,3.00
2022-10-29T03:54:21.275Z,3.00
2022-10-29T03:56:48.531Z,3.53
2022-10-29T03:59:15.821Z,3.20
2022-10-29T04:01:43.730Z,3.23
2022-10-29T04:04:11.297Z,3.60
2022-10-29T04:06:38.611Z,3.27
2022-10-29T04:09:06.012Z,3.77
2022-10-29T04:11:34.386Z,3.33
2022-10-29T04:14:01.876Z,2.97
2022-10-29T04:16:29.272Z,2.83
2022-10-29T04:18:56.572Z,3.00
2022-10-29T04:29:46.343Z,3.73
2022-10-29T04:32:13.780Z,4.90
2022-10-29T04:34:41.031Z,5.07
2022-10-29T04:37:08.301Z,5.23
2022-10-29T04:39:35.618Z,5.17
2022-10-29T04:42:02.949Z,5.67
2022-10-29T04:44:30.322Z,6.40
2022-10-29T04:46:57.703Z,5.65
2022-10-29T04:49:25.133Z,5.32
2022-10-29T04:51:52.566Z,5.50
2022-10-29T04:54:19.953Z,4.60
2022-10-29T04:56:47.270Z,6.35
2022-10-29T04:59:14.830Z,4.82
2022-10-29T05:01:42.075Z,3.97
2022-10-29T05:04:09.567Z,3.90
2022-10-29T05:06:36.814Z,3.78
2022-10-29T05:09:04.385Z,4.07
2022-10-29T05:11:31.724Z,3.85
2022-10-29T05:13:59.165Z,3.72
2022-10-29T05:16:26.512Z,4.47
2022-10-29T05:18:53.868Z,3.78
2022-10-29T05:21:21.068Z,3.67
2022-10-29T05:23:48.431Z,3.65
2022-10-29T05:26:16.429Z,3.70
2022-10-29T05:28:43.693Z,3.83
2022-10-29T05:31:11.151Z,4.80
2022-10-29T05:33:38.434Z,3.90
2022-10-29T05:36:08.963Z,4.15
2022-10-29T05:38:36.309Z,3.60
2022-10-29T05:41:03.842Z,4.00
2022-10-29T05:43:31.413Z,3.10
2022-10-29T05:45:58.698Z,3.60
2022-10-29T05:48:29.201Z,3.85
2022-10-29T05:50:58.059Z,4.03
2022-10-29T05:53:26.790Z,3.95
2022-10-29T05:55:54.021Z,4.80
2022-10-29T05:58:21.290Z,4.18
2022-10-29T06:00:48.521Z,4.30
2022-10-29T06:03:20.172Z,4.65
2022-10-29T06:05:48.046Z,4.67
2022-10-29T06:08:15.456Z,4.95
2022-10-29T06:10:42.701Z,4.50
2022-10-29T06:13:11.214Z,4.00
2022-10-29T06:15:38.459Z,4.50
2022-10-29T06:18:07.261Z,3.88
2022-10-29T06:20:34.613Z,3.95
2022-10-29T06:23:02.020Z,4.10
2022-10-29T06:25:29.686Z,4.27
2022-10-29T06:28:04.275Z,4.13
2022-10-29T06:30:32.109Z,4.10
2022-10-29T06:33:00.567Z,3.65
2022-10-29T06:35:28.356Z,4.25
2022-10-29T06:37:59.655Z,4.72
2022-10-29T06:40:27.354Z,3.80
2022-10-29T06:43:04.731Z,4.45
2022-10-29T06:45:32.577Z,4.07
2022-10-29T06:48:00.158Z,5.00
2022-10-29T06:50:28.144Z,4.18
2022-10-29T06:53:01.423Z,4.25
2022-10-29T06:55:29.356Z,4.18
2022-10-29T06:57:57.811Z,3.78
2022-10-29T07:00:25.355Z,4.00
2022-10-29T07:02:53.305Z,4.03
2022-10-29T07:05:21.371Z,4.45
2022-10-29T07:07:48.668Z,4.55
2022-10-29T07:10:16.184Z,4.47
2022-10-29T07:12:44.142Z,4.07
2022-10-29T07:15:12.775Z,3.80
2022-10-29T07:17:40.340Z,4.30
2022-10-29T07:20:08.778Z,3.58
2022-10-29T07:22:36.472Z,3.97
2022-10-29T07:25:03.817Z,2.95
2022-10-29T07:27:31.124Z,3.20
2022-10-29T07:29:58.503Z,3.45
2022-10-29T07:32:25.761Z,3.83
2022-10-29T07:34:53.225Z,3.17
2022-10-29T07:37:20.752Z,3.00
2022-10-29T07:39:48.170Z,3.38
2022-10-29T07:42:15.418Z,3.50
2022-10-29T07:44:42.824Z,3.42
2022-10-29T07:47:10.294Z,4.05
2022-10-29T07:49:37.734Z,3.60
2022-10-29T07:52:05.291Z,3.38
2022-10-29T07:54:32.585Z,3.40
2022-10-29T07:56:59.937Z,3.03
2022-10-29T07:59:27.419Z,3.30
2022-10-29T08:01:54.803Z,3.33
2022-10-29T08:04:22.616Z,2.75
2022-10-29T08:06:49.904Z,3.08
2022-10-29T08:09:17.170Z,3.17
2022-10-29T08:11:44.451Z,3.40
2022-10-29T08:14:12.905Z,2.92
2022-10-29T08:16:40.246Z,2.85
2022-10-29T08:19:07.560Z,3.20
2022-10-29T08:21:34.940Z,4.78
2022-10-29T08:24:02.358Z,4.13
2022-10-29T08:26:29.581Z,3.00
2022-10-29T08:28:56.833Z,3.17
2022-10-29T08:31:24.172Z,3.90
2022-10-29T08:33:51.597Z,5.10
2022-10-29T08:36:18.979Z,4.50
2022-10-29T08:38:48.053Z,4.80
2022-10-29T08:41:27.436Z,4.30
2022-10-29T08:43:54.915Z,4.35
2022-10-29T08:46:26.079Z,2.97
2022-10-29T08:48:55.202Z,4.15
2022-10-29T08:51:39.436Z,3.13
2022-10-29T08:57:00.960Z,4.45
2022-10-29T08:59:30.500Z,3.88
2022-10-29T09:01:57.890Z,6.63
2022-10-29T09:04:35.491Z,6.38
2022-10-29T09:07:21.691Z,8.70
2022-10-29T09:10:03.753Z,7.00
2022-10-29T09:12:42.010Z,5.00
2022-10-29T09:15:18.452Z,3.33
2022-10-29T09:17:51.545Z,3.13
2022-10-29T09:20:34.309Z,2.80
2022-10-29T09:23:04.874Z,3.40
2022-10-29T09:25:34.433Z,2.50
2022-10-29T09:28:08.373Z,2.55
2022-10-29T09:30:41.276Z,2.97
2022-10-29T09:33:14.907Z,2.95
2022-10-29T09:35:47.881Z,2.42
2022-10-29T09:38:17.881Z,2.72
2022-10-29T09:40:45.264Z,3.15
2022-10-29T09:43:21.544Z,2.55
2022-10-29T09:45:58.254Z,2.63
2022-10-29T09:48:35.638Z,2.75
2022-10-29T09:51:02.996Z,2.60
2022-10-29T09:53:30.376Z,3.05
2022-10-29T09:55:57.746Z,2.65
2022-10-29T09:58:26.618Z,2.55
2022-10-29T10:00:55.063Z,3.17
2022-10-29T10:03:31.646Z,3.05
2022-10-29T10:05:59.058Z,3.00
2022-10-29T10:08:26.650Z,3.30
2022-10-29T10:10:55.741Z,2.97
2022-10-29T10:13:27.871Z,2.90
2022-10-29T10:15:56.842Z,3.17
2022-10-29T10:18:27.357Z,2.40
2022-10-29T10:21:14.894Z,3.10
2022-10-29T10:23:52.817Z,2.53
2022-10-29T10:26:40.107Z,2.70
2022-10-29T10:29:11.197Z,2.88
2022-10-29T10:31:38.902Z,2.30
2022-10-29T10:34:14.171Z,3.03
2022-10-29T10:36:46.760Z,3.00
2022-10-29T10:39:21.172Z,2.70
2022-10-29T10:41:49.807Z,2.85
2022-10-29T10:44:17.306Z,2.53
2022-10-29T10:46:45.447Z,2.60
2022-10-29T10:49:12.637Z,2.75
2022-10-29T10:51:43.842Z,2.60
2022-10-29T10:54:28.533Z,2.85
2022-10-29T10:57:00.033Z,2.60
2022-10-29T10:59:55.340Z,2.35
2022-10-29T11:02:34.944Z,2.72
2022-10-29T11:05:22.117Z,2.75
2022-10-29T11:08:01.852Z,3.10
2022-10-29T11:10:35.571Z,2.40
2022-10-29T11:13:06.002Z,2.70
2022-10-29T11:15:51.688Z,2.40
2022-10-29T11:18:22.349Z,2.70
2022-10-29T11:21:09.823Z,2.22
2022-10-29T11:23:47.059Z,2.10
2022-10-29T11:26:17.067Z,2.45
2022-10-29T11:28:49.656Z,2.63
2022-10-29T11:31:38.118Z,2.38
2022-10-29T11:34:24.208Z,2.60
2022-10-29T11:36:58.775Z,2.75
2022-10-29T11:39:44.900Z,2.85
2022-10-29T11:42:14.258Z,3.03
2022-10-29T11:44:41.816Z,3.33
2022-10-29T11:47:27.833Z,2.67
2022-10-29T11:50:04.297Z,2.47
2022-10-29T11:52:37.671Z,2.30
2022-10-29T11:55:08.280Z,2.55
2022-10-29T11:57:40.298Z,2.78
2022-10-29T12:00:18.506Z,2.58
2022-10-29T12:02:55.241Z,2.63
2022-10-29T12:05:25.791Z,2.50
2022-10-29T12:07:59.704Z,2.38
2022-10-29T12:10:30.377Z,2.45
2022-10-29T12:13:03.798Z,2.55
2022-10-29T12:15:36.049Z,2.50
2022-10-29T12:18:15.529Z,2.60
2022-10-29T12:20:47.240Z,2.40
2022-10-29T12:23:33.004Z,2.53
2022-10-29T12:26:10.455Z,2.72
2022-10-29T12:28:39.635Z,2.95
2022-10-29T12:31:25.307Z,2.60
2022-10-29T12:34:12.334Z,2.55
2022-10-29T12:36:44.344Z,2.33
2022-10-29T12:39:19.254Z,2.55
2022-10-29T12:41:48.917Z,2.40
2022-10-29T12:44:29.856Z,2.50
2022-10-29T12:47:06.350Z,2.47
2022-10-29T12:49:42.929Z,2.90
2022-10-29T12:52:22.403Z,2.80
2022-10-29T12:54:51.406Z,2.63
2022-10-29T12:57:18.732Z,2.80
2022-10-29T12:59:46.184Z,2.55
2022-10-29T13:02:23.647Z,2.45
2022-10-29T13:05:09.887Z,2.42
2022-10-29T13:07:37.490Z,2.67
2022-10-29T13:10:30.882Z,2.40
2022-10-29T13:13:16.788Z,6.85
2022-10-29T13:15:45.201Z,3.88
2022-10-29T13:18:12.510Z,2.63
2022-10-29T13:20:48.532Z,2.42
2022-10-29T13:23:25.095Z,2.70
2022-10-29T13:25:53.036Z,2.58
2022-10-29T13:28:20.338Z,3.00
2022-10-29T13:30:51.772Z,2.22
2022-10-29T13:33:28.901Z,2.50
2022-10-29T13:35:56.179Z,2.78
2022-10-29T13:38:52.379Z,2.50
2022-10-29T13:41:42.600Z,2.30
2022-10-29T13:44:24.322Z,2.72
2022-10-29T13:47:03.190Z,2.50
2022-10-29T13:49:32.274Z,2.65
2022-10-29T13:52:23.197Z,2.55
2022-10-29T13:54:53.488Z,2.75
2022-10-29T13:57:23.763Z,2.50
2022-10-29T13:59:51.025Z,2.53
2022-10-29T14:02:21.456Z,2.50
2022-10-29T14:04:51.193Z,3.03
2022-10-29T14:07:28.634Z,2.22
2022-10-29T14:09:56.990Z,2.67
2022-10-29T14:12:27.136Z,2.50
2022-10-29T14:14:59.001Z,2.60
2022-10-29T14:17:26.291Z,2.80
2022-10-29T14:19:53.783Z,2.65
2022-10-29T14:22:41.232Z,2.95
2022-10-29T14:25:27.630Z,2.40
2022-10-29T14:28:10.458Z,2.45
2022-10-29T14:30:37.732Z,2.67
2022-10-29T14:33:18.100Z,2.65
2022-10-29T14:35:45.753Z,2.53
2022-10-29T14:38:14.151Z,2.72
2022-10-29T14:40:42.738Z,2.38
2022-10-29T14:43:18.108Z,2.88
2022-10-29T14:45:45.429Z,3.22
2022-10-29T14:48:16.469Z,2.65
2022-10-29T14:51:01.904Z,3.03
2022-10-29T14:53:36.433Z,2.75
2022-10-29T14:56:09.176Z,3.00
2022-10-29T14:58:37.198Z,3.03
2022-10-29T15:01:07.755Z,2.95
2022-10-29T15:03:36.299Z,3.30
2022-10-29T15:06:12.855Z,3.45
2022-10-29T15:08:41.029Z,3.70
2022-10-29T15:11:28.486Z,4.25
2022-10-29T15:13:55.938Z,4.60
2022-10-29T15:16:23.344Z,4.18
2022-10-29T15:18:51.689Z,4.20
2022-10-29T15:21:23.080Z,4.70
2022-10-29T15:23:53.822Z,3.50
2022-10-29T15:26:22.046Z,3.35
2022-10-29T15:28:53.550Z,3.65
2022-10-29T15:31:39.666Z,3.55
2022-10-29T15:34:11.160Z,5.32
2022-10-29T15:36:47.820Z,8.18
2022-10-29T15:39:35.353Z,19.73
2022-10-29T15:42:03.228Z,22.30
2022-10-29T15:44:38.365Z,21.67
2022-10-29T15:47:22.524Z,16.88
2022-10-29T15:49:49.980Z,13.13
2022-10-29T15:52:18.923Z,13.07
2022-10-29T15:54:46.669Z,9.70
2022-10-29T15:57:15.308Z,6.18
2022-10-29T15:59:43.065Z,6.63
2022-10-29T16:02:19.533Z,6.55
2022-10-29T16:04:47.147Z,7.30
2022-10-29T16:07:15.095Z,6.35
2022-10-29T16:09:49.940Z,6.60
2022-10-29T16:12:17.424Z,6.38
2022-10-29T16:14:44.711Z,5.68
2022-10-29T16:17:16.412Z,5.05
2022-10-29T16:19:43.835Z,4.97
2022-10-29T16:22:15.407Z,4.88
2022-10-29T16:24:42.662Z,5.13
2022-10-29T16:27:17.227Z,4.00
2022-10-29T16:29:44.583Z,4.50
2022-10-29T16:32:16.091Z,4.35
2022-10-29T16:34:43.709Z,4.10
2022-10-29T16:37:15.197Z,4.20
2022-10-29T16:39:45.813Z,4.65
2022-10-29T16:42:28.980Z,4.97
2022-10-29T16:44:56.382Z,6.18
2022-10-29T16:47:24.772Z,9.80
2022-10-29T16:49:52.228Z,14.48
2022-10-29T16:52:22.494Z,11.43
2022-10-29T16:54:51.373Z,11.68
2022-10-29T16:57:18.733Z,11.65
2022-10-29T16:59:46.171Z,11.07
2022-10-29T17:02:13.370Z,12.88
2022-10-29T17:04:40.732Z,15.50
2022-10-29T17:07:08.264Z,14.73
2022-10-29T17:09:37.061Z,12.93
2022-10-29T17:12:04.551Z,12.57
2022-10-29T17:14:31.978Z,9.02
2022-10-29T17:17:01.746Z,8.02
2022-10-29T17:19:29.420Z,7.63
2022-10-29T17:21:59.908Z,8.02
2022-10-29T17:24:27.718Z,8.10
2022-10-29T17:26:55.180Z,6.22
2022-10-29T17:29:22.756Z,5.85
2022-10-29T17:31:50.198Z,6.65
2022-10-29T17:34:17.780Z,8.18
2022-10-29T17:36:45.196Z,7.47
2022-10-29T17:39:12.591Z,7.38
2022-10-29T17:41:39.990Z,8.43
2022-10-29T17:44:07.319Z,10.43
2022-10-29T17:46:34.622Z,8.35
2022-10-29T17:49:03.069Z,8.48
2022-10-29T17:51:30.475Z,8.88
2022-10-29T17:53:57.776Z,9.00
2022-10-29T17:56:25.009Z,8.10
2022-10-29T17:58:52.328Z,8.27
2022-10-29T18:01:19.841Z,7.78
2022-10-29T18:03:47.165Z,5.45
2022-10-29T18:06:14.714Z,6.10
2022-10-29T18:08:42.928Z,6.30
2022-10-29T18:11:10.248Z,7.25
2022-10-29T18:13:41.301Z,7.72
2022-10-29T18:16:19.161Z,8.10
2022-10-29T18:19:00.955Z,8.35
2022-10-29T18:21:30.209Z,10.68
2022-10-29T18:23:58.101Z,7.43
2022-10-29T18:26:33.182Z,6.00
2022-10-29T18:29:01.360Z,9.73
2022-10-29T18:31:30.622Z,8.32
2022-10-29T18:33:58.709Z,8.93
2022-10-29T18:36:26.145Z,8.95
2022-10-29T18:38:54.367Z,11.02
2022-10-29T18:41:22.260Z,11.38
2022-10-29T18:43:49.886Z,9.80
2022-10-29T18:46:17.477Z,9.88
2022-10-29T18:48:47.152Z,9.98
2022-10-29T18:51:15.827Z,9.30
2022-10-29T18:53:43.116Z,9.15
2022-10-29T18:56:14.790Z,7.63
2022-10-29T18:58:42.405Z,7.75
2022-10-29T19:01:11.063Z,9.55
2022-10-29T19:03:38.771Z,13.00
2022-10-29T19:06:07.877Z,14.32
2022-10-29T19:08:36.343Z,15.40
2022-10-29T19:11:04.806Z,7.50
2022-10-29T19:13:32.704Z,8.93
2022-10-29T19:16:03.906Z,7.30
2022-10-29T19:18:32.102Z,5.88
2022-10-29T19:21:06.722Z,5.40
2022-10-29T19:23:34.720Z,5.80
2022-10-29T19:26:09.526Z,5.85
2022-10-29T19:28:37.069Z,6.05
2022-10-29T19:31:05.447Z,6.72
2022-10-29T19:33:33.293Z,6.53
2022-10-29T19:36:00.698Z,7.47
2022-10-29T19:38:28.324Z,8.27
2022-10-29T19:40:57.072Z,9.23
2022-10-29T19:43:24.773Z,9.48
2022-10-29T19:45:52.348Z,10.48
2022-10-29T19:48:19.723Z,9.52
2022-10-29T19:50:47.685Z,9.30
2022-10-29T19:53:15.095Z,9.25
2022-10-29T19:55:45.723Z,8.88
2022-10-29T19:58:13.542Z,7.72
2022-10-29T20:00:40.819Z,6.57
2022-10-29T20:03:08.168Z,6.85
2022-10-29T20:05:38.923Z,6.13
2022-10-29T20:08:09.972Z,6.28
2022-10-29T20:10:43.445Z,6.03
2022-10-29T20:13:11.094Z,7.55
2022-10-29T20:15:41.598Z,7.13
2022-10-29T20:18:09.000Z,8.23
2022-10-29T20:20:36.341Z,8.35
2022-10-29T20:23:03.658Z,8.75
2022-10-29T20:25:31.037Z,8.55
2022-10-29T20:27:59.552Z,7.75
2022-10-29T20:30:26.795Z,7.78
2022-10-29T20:32:54.378Z,7.65
2022-10-29T20:35:22.315Z,7.47
2022-10-29T20:37:49.865Z,6.88
2022-10-29T20:40:17.118Z,6.85
2022-10-29T20:42:44.486Z,7.43
2022-10-29T20:45:11.802Z,8.50
2022-10-29T20:47:39.371Z,6.60
2022-10-29T20:50:06.792Z,6.95
2022-10-29T20:52:34.046Z,6.00
2022-10-29T20:55:01.363Z,6.45
2022-10-29T20:57:28.616Z,6.43
2022-10-29T20:59:56.148Z,6.13
2022-10-29T21:02:23.634Z,5.93
2022-10-29T21:04:51.111Z,6.33
2022-10-29T21:07:19.513Z,6.80
2022-10-29T21:09:48.565Z,7.30
2022-10-29T21:12:15.897Z,8.53
2022-10-29T21:14:43.218Z,8.87
2022-10-29T21:17:11.191Z,7.93
2022-10-29T21:19:38.492Z,8.20
2022-10-29T21:22:08.957Z,7.90
2022-10-29T21:24:38.294Z,8.10
2022-10-29T21:27:10.005Z,8.10
2022-10-29T21:29:37.317Z,9.37
2022-10-29T21:32:05.647Z,9.13
2022-10-29T21:34:32.874Z,9.57
2022-10-29T21:37:00.161Z,8.52
2022-10-29T21:39:27.880Z,8.82
2022-10-29T21:41:56.088Z,8.30
2022-10-29T21:44:24.572Z,7.22
2022-10-29T21:46:53.428Z,7.82
2022-10-29T21:49:24.142Z,7.53
2022-10-29T21:51:52.542Z,7.70
2022-10-29T21:54:22.001Z,8.10
2022-10-29T21:56:52.516Z,7.88
2022-10-29T21:59:24.726Z,8.50
2022-10-29T22:01:52.207Z,7.63
2022-10-29T22:04:19.774Z,7.90
2022-10-29T22:06:46.965Z,8.13
2022-10-29T22:09:14.670Z,8.57
2022-10-29T22:11:41.920Z,8.30
2022-10-29T22:14:09.195Z,7.70
2022-10-29T22:16:36.535Z,7.03
2022-10-29T22:19:04.241Z,7.53
2022-10-29T22:21:32.573Z,9.50
2022-10-29T22:24:00.070Z,17.33
2022-10-29T22:26:28.950Z,18.13
2022-10-29T22:28:56.814Z,9.60
2022-10-29T22:31:24.703Z,7.80
2022-10-29T22:33:52.508Z,8.30
2022-10-29T22:36:24.007Z,8.17
2022-10-29T22:38:55.449Z,6.37
2022-10-29T22:41:23.254Z,6.63
2022-10-29T22:43:50.645Z,5.23
2022-10-29T22:46:18.578Z,4.90
2022-10-29T22:48:46.336Z,6.77
2022-10-29T22:51:15.282Z,5.77
2022-10-29T22:53:43.093Z,5.97
2022-10-29T22:56:29.507Z,6.37
2022-10-29T22:58:57.297Z,6.87
2022-10-29T23:01:26.820Z,6.30
2022-10-29T23:03:54.499Z,6.50
2022-10-29T23:06:23.449Z,6.03
2022-10-29T23:08:54.387Z,5.83
2022-10-29T23:11:23.248Z,6.50
2022-10-29T23:13:52.589Z,6.70
2022-10-29T23:16:20.168Z,6.50
2022-10-29T23:18:51.459Z,5.43
2022-10-29T23:21:19.079Z,5.43
2022-10-29T23:23:47.494Z,7.07
2022-10-29T23:26:15.383Z,7.77
2022-10-29T23:28:43.304Z,8.37
2022-10-29T23:31:15.354Z,7.93
2022-10-29T23:33:46.690Z,10.00
2022-10-29T23:36:14.881Z,9.83
2022-10-29T23:38:42.223Z,10.00
2022-10-29T23:41:10.292Z,7.70
2022-10-29T23:43:38.060Z,5.70
2022-10-29T23:46:05.675Z,7.13
2022-10-29T23:48:33.452Z,6.40
2022-10-29T23:51:00.789Z,4.63
2022-10-29T23:53:28.398Z,5.43
2022-10-29T23:55:55.631Z,5.67
2022-10-29T23:58:22.970Z,6.03
